Thurso, Canada
Current Conditions -  °F | °C
As of 6:00 PM on Monday 22 Dec 2014 (Local Time) from CYND Reporting Station
Light Snow Light Snow  
Wind Chill: 12°   Ceiling: 1200
Heat Index: 23°   Visibility: 7mi
Dew Point: 19°   Wind: 10mph
Humidity: 86%   Direction: 80°E
Pressure: 30.27"   Gusts: NA
Location:  45.58°N, 75.23°W
Report Text: CYND 222300Z 08009KT 7SM -SN BKN012 OVC030 M05/M07 A3027 RMK SC5SC3 SLP256
Loading
Personal Weather Stations






























Interactive Weather Map New forecast layout! Learn more

10-Day Weather Forecast

Advertisements
Track Severe Weather on mobile